首页
METAR-TAF:

METAR-TAF

机场 :

艾姆斯, 艾奥瓦州, 美国

纬度: 41-59-26N, 经度: 093-37-08W, 海拔: 288米

当前天气观测

该预报发布于24分钟前的10:53 UTC
风速8节,风向
温度 16°C
湿度 100%
气压 1009 hPa
能見度: 8.0公里
多云层高于400英尺
轻雾

METAR: KAMW 161053Z AUTO 01008KT 5SM BR BKN004 16/16 A2980 RMK AO2 SLP087 T01610156 $

时间: 06:17 (11:17 UTC)


TAF: 丢失

超过4000个机场的气象观测和天气预报(METAR&TAF报告)。

可查询的气象台以黄色和红色小点在地图上表示。

将鼠标移到小点上方,可查看气象台名称。

然后点击查看天气观测和预报。

如需切换地图:点击带黑十字的绿色按钮放大地图;点击带横线的绿色按钮缩小地图;或者点击绿色箭头查看邻近地区的地图。


METAR-TAF: